createdAt,value
2024-03-12T00:00:09.730Z,3.899
2024-03-12T00:01:11.027Z,3.808
2024-03-12T00:02:09.387Z,4.011
2024-03-12T00:03:09.823Z,4.043
2024-03-12T00:04:09.491Z,4.075
2024-03-12T00:06:09.436Z,4.019
2024-03-12T00:07:09.152Z,3.974
2024-03-12T00:08:09.875Z,3.977
2024-03-12T00:09:09.281Z,3.998
2024-03-12T00:10:09.940Z,3.950
2024-03-12T00:11:08.959Z,3.904
2024-03-12T00:12:09.545Z,3.843
2024-03-12T00:13:09.063Z,3.792
2024-03-12T00:14:09.785Z,3.693
2024-03-12T00:15:09.080Z,3.637
2024-03-12T00:16:10.284Z,3.611
2024-03-12T00:17:08.894Z,3.701
2024-03-12T00:18:09.301Z,3.691
2024-03-12T00:19:08.985Z,3.709
2024-03-12T00:20:10.407Z,3.675
2024-03-12T00:22:09.628Z,3.739
2024-03-12T00:23:09.207Z,3.701
2024-03-12T00:24:09.895Z,3.744
2024-03-12T00:25:09.946Z,3.725
2024-03-12T00:26:09.387Z,3.752
2024-03-12T00:27:08.802Z,3.723
2024-03-12T00:28:10.412Z,3.742
2024-03-12T00:29:08.933Z,3.774
2024-03-12T00:30:09.506Z,3.768
2024-03-12T00:31:09.371Z,3.755
2024-03-12T00:32:08.813Z,3.672
2024-03-12T00:33:09.579Z,3.648
2024-03-12T00:34:09.375Z,3.576
2024-03-12T00:35:08.958Z,3.499
2024-03-12T00:36:09.356Z,3.413
2024-03-12T00:37:09.151Z,3.344
2024-03-12T00:38:09.688Z,3.285
2024-03-12T00:39:09.493Z,3.223
2024-03-12T00:40:09.114Z,3.194
2024-03-12T00:41:09.741Z,3.199
2024-03-12T00:42:09.114Z,3.141
2024-03-12T00:43:10.246Z,3.109
2024-03-12T00:44:09.840Z,3.087
2024-03-12T00:46:10.070Z,3.037
2024-03-12T00:48:09.567Z,2.898
2024-03-12T00:49:09.530Z,2.908
2024-03-12T00:50:08.972Z,2.823
2024-03-12T00:51:09.454Z,2.868
2024-03-12T00:52:10.146Z,2.860
2024-03-12T00:53:09.588Z,2.906
2024-03-12T00:54:08.869Z,2.876
2024-03-12T00:55:09.585Z,2.863
2024-03-12T00:56:08.996Z,2.831
2024-03-12T00:57:09.498Z,2.879
2024-03-12T00:58:09.250Z,2.954
2024-03-12T00:59:09.638Z,2.866
2024-03-12T01:00:09.030Z,2.778
2024-03-12T01:01:09.890Z,2.836
2024-03-12T01:02:08.790Z,2.906
2024-03-12T01:03:09.141Z,2.964
2024-03-12T01:04:09.948Z,2.991
2024-03-12T01:05:09.406Z,3.053
2024-03-12T01:06:09.788Z,3.010
2024-03-12T01:07:09.455Z,3.018
2024-03-12T01:08:09.558Z,3.053
2024-03-12T01:09:09.146Z,2.972
2024-03-12T01:10:10.350Z,3.047
2024-03-12T01:11:09.077Z,2.980
2024-03-12T01:12:09.615Z,2.983
2024-03-12T01:13:09.197Z,2.932
2024-03-12T01:14:09.626Z,3.005
2024-03-12T01:15:09.005Z,2.954
2024-03-12T01:16:10.113Z,2.890
2024-03-12T01:18:10.740Z,2.932
2024-03-12T01:19:09.543Z,2.871
2024-03-12T01:20:08.906Z,2.852
2024-03-12T01:21:09.351Z,2.863
2024-03-12T01:22:08.959Z,2.831
2024-03-12T01:23:10.706Z,2.831
2024-03-12T01:24:08.980Z,2.858
2024-03-12T01:25:09.441Z,2.839
2024-03-12T01:26:08.845Z,2.834
2024-03-12T01:27:09.184Z,2.804
2024-03-12T01:28:12.077Z,2.786
2024-03-12T01:29:08.840Z,2.791
2024-03-12T01:30:09.219Z,2.796
2024-03-12T01:31:09.935Z,2.729
2024-03-12T01:32:09.527Z,2.732
2024-03-12T01:33:09.898Z,2.580
2024-03-12T01:34:09.692Z,2.631
2024-03-12T01:35:09.017Z,2.607
2024-03-12T01:36:09.409Z,2.676
2024-03-12T01:37:10.470Z,2.665
2024-03-12T01:38:09.195Z,2.527
2024-03-12T01:39:09.876Z,2.535
2024-03-12T01:40:09.890Z,2.500
2024-03-12T01:41:09.398Z,2.527
2024-03-12T01:42:09.762Z,2.537
2024-03-12T01:44:09.038Z,2.612
2024-03-12T01:45:09.481Z,2.663
2024-03-12T01:46:09.007Z,2.695
2024-03-12T01:47:09.585Z,2.639
2024-03-12T01:48:10.143Z,2.657
2024-03-12T01:49:08.948Z,2.535
2024-03-12T01:50:09.453Z,2.508
2024-03-12T01:51:09.788Z,2.505
2024-03-12T01:52:09.409Z,2.465
2024-03-12T01:53:09.635Z,2.462
2024-03-12T01:54:09.580Z,2.433
2024-03-12T01:55:09.110Z,2.425
2024-03-12T01:56:09.500Z,2.494
2024-03-12T01:57:08.841Z,2.521
2024-03-12T01:58:09.640Z,2.559
2024-03-12T01:59:09.051Z,2.556
2024-03-12T02:00:09.380Z,2.553
2024-03-12T02:01:10.348Z,2.494
2024-03-12T02:02:09.280Z,2.420
2024-03-12T02:03:09.641Z,2.372
2024-03-12T02:04:09.594Z,2.372
2024-03-12T02:05:09.149Z,2.396
2024-03-12T02:06:09.484Z,2.417
2024-03-12T02:07:09.099Z,2.420
2024-03-12T02:08:09.554Z,2.358
2024-03-12T02:09:08.876Z,2.251
2024-03-12T02:10:09.405Z,2.177
2024-03-12T02:11:08.968Z,2.259
2024-03-12T02:12:09.380Z,2.502
2024-03-12T02:13:10.604Z,2.527
2024-03-12T02:14:09.290Z,2.492
2024-03-12T02:15:09.662Z,2.510
2024-03-12T02:16:09.298Z,2.473
2024-03-12T02:17:08.809Z,2.414
2024-03-12T02:18:09.575Z,2.505
2024-03-12T02:19:09.299Z,2.444
2024-03-12T02:20:08.746Z,2.382
2024-03-12T02:21:09.463Z,2.521
2024-03-12T02:22:09.348Z,2.559
2024-03-12T02:23:08.898Z,2.484
2024-03-12T02:24:09.354Z,2.414
2024-03-12T02:25:10.443Z,2.278
2024-03-12T02:26:09.025Z,2.326
2024-03-12T02:27:09.467Z,2.409
2024-03-12T02:28:10.536Z,2.326
2024-03-12T02:29:09.257Z,2.267
2024-03-12T02:31:10.658Z,2.211
2024-03-12T02:32:09.218Z,2.155
2024-03-12T02:33:09.886Z,2.073
2024-03-12T02:34:09.697Z,1.931
2024-03-12T02:35:09.155Z,1.870
2024-03-12T02:36:09.604Z,1.806
2024-03-12T02:37:09.036Z,1.832
2024-03-12T02:38:09.500Z,1.859
2024-03-12T02:39:08.957Z,1.872
2024-03-12T02:40:10.003Z,1.923
2024-03-12T02:41:09.663Z,1.896
2024-03-12T02:42:08.982Z,1.912
2024-03-12T02:43:09.659Z,1.939
2024-03-12T02:44:09.112Z,1.854
2024-03-12T02:45:09.564Z,1.808
2024-03-12T02:46:09.467Z,1.814
2024-03-12T02:47:09.132Z,1.806
2024-03-12T02:48:09.879Z,1.776
2024-03-12T02:49:09.823Z,1.835
2024-03-12T02:50:09.301Z,1.878
2024-03-12T02:51:09.660Z,1.854
2024-03-12T02:52:09.333Z,1.878
2024-03-12T02:53:09.720Z,1.934
2024-03-12T02:54:09.142Z,1.765
2024-03-12T02:55:09.777Z,1.784
2024-03-12T02:56:09.313Z,1.731
2024-03-12T02:57:09.670Z,1.725
2024-03-12T02:58:09.418Z,1.693
2024-03-12T03:00:09.407Z,1.693
2024-03-12T03:01:10.193Z,1.832
2024-03-12T03:02:09.231Z,1.795
2024-03-12T03:03:09.699Z,1.832
2024-03-12T03:04:09.174Z,1.784
2024-03-12T03:05:09.652Z,1.819
2024-03-12T03:06:09.816Z,1.733
2024-03-12T03:07:09.613Z,1.731
2024-03-12T03:08:09.210Z,1.755
2024-03-12T03:09:09.710Z,1.733
2024-03-12T03:10:09.799Z,1.814
2024-03-12T03:11:09.380Z,1.790
2024-03-12T03:14:09.202Z,1.717
2024-03-12T03:15:09.689Z,1.704
2024-03-12T03:16:10.931Z,1.619
2024-03-12T03:17:09.522Z,1.656
2024-03-12T03:18:09.543Z,1.672
2024-03-12T03:19:09.534Z,1.691
2024-03-12T03:20:08.969Z,1.688
2024-03-12T03:21:09.485Z,1.720
2024-03-12T03:22:09.551Z,1.699
2024-03-12T03:24:09.486Z,1.651
2024-03-12T03:25:09.082Z,1.680
2024-03-12T03:26:09.871Z,1.643
2024-03-12T03:27:09.430Z,1.683
2024-03-12T03:28:08.957Z,1.701
2024-03-12T03:29:09.599Z,1.696
2024-03-12T03:30:08.964Z,1.685
2024-03-12T03:31:10.969Z,1.581
2024-03-12T03:32:09.658Z,1.584
2024-03-12T03:33:09.025Z,1.565
2024-03-12T03:34:09.987Z,1.541
2024-03-12T03:36:09.128Z,1.512
2024-03-12T03:37:10.004Z,1.469
2024-03-12T03:39:09.035Z,1.472
2024-03-12T03:40:09.884Z,1.458
2024-03-12T03:41:08.912Z,1.394
2024-03-12T03:42:09.684Z,1.325
2024-03-12T03:43:10.151Z,1.325
2024-03-12T03:44:08.811Z,1.384
2024-03-12T03:45:09.466Z,1.386
2024-03-12T03:46:09.122Z,1.450
2024-03-12T03:47:09.668Z,1.442
2024-03-12T03:48:09.116Z,1.509
2024-03-12T03:49:09.726Z,1.477
2024-03-12T03:50:09.659Z,1.434
2024-03-12T03:51:09.124Z,1.373
2024-03-12T03:52:10.155Z,1.354
2024-03-12T03:53:09.675Z,1.304
2024-03-12T03:54:08.967Z,1.344
2024-03-12T03:55:09.781Z,1.378
2024-03-12T03:56:09.293Z,1.362
2024-03-12T03:57:09.973Z,1.362
2024-03-12T03:58:09.904Z,1.400
2024-03-12T03:59:09.393Z,1.376
2024-03-12T04:00:09.782Z,1.469
2024-03-12T04:01:09.956Z,1.453
2024-03-12T04:02:09.181Z,1.410
2024-03-12T04:03:09.728Z,1.416
2024-03-12T04:04:09.364Z,1.336
2024-03-12T04:05:09.854Z,1.397
2024-03-12T04:06:09.251Z,1.354
2024-03-12T04:07:10.113Z,1.266
2024-03-12T04:08:09.795Z,1.231
2024-03-12T04:11:10.284Z,1.213
2024-03-12T04:12:09.825Z,1.312
2024-03-12T04:13:09.403Z,1.314
2024-03-12T04:14:09.734Z,1.429
2024-03-12T04:15:09.233Z,1.293
2024-03-12T04:16:10.284Z,1.213
2024-03-12T04:17:08.942Z,1.250
2024-03-12T04:18:09.685Z,1.213
2024-03-12T04:19:09.950Z,1.237
2024-03-12T04:20:09.706Z,1.223
2024-03-12T04:21:09.787Z,1.234
2024-03-12T04:22:09.981Z,1.266
2024-03-12T04:24:08.930Z,1.389
2024-03-12T04:25:09.625Z,1.279
2024-03-12T04:26:09.467Z,1.226
2024-03-12T04:27:09.180Z,1.202
2024-03-12T04:28:09.910Z,1.205
2024-03-12T04:29:09.364Z,1.237
2024-03-12T04:30:09.903Z,1.194
2024-03-12T04:32:09.023Z,1.183
2024-03-12T04:33:09.915Z,1.127
2024-03-12T04:34:09.734Z,1.151
2024-03-12T04:35:09.441Z,1.186
2024-03-12T04:36:08.822Z,1.175
2024-03-12T04:37:09.730Z,1.165
2024-03-12T04:39:09.009Z,1.178
2024-03-12T04:40:09.990Z,1.133
2024-03-12T04:41:09.382Z,1.133
2024-03-12T04:42:09.730Z,1.159
2024-03-12T04:43:09.241Z,1.085
2024-03-12T04:45:09.415Z,1.007
2024-03-12T04:46:09.069Z,1.135
2024-03-12T04:47:09.907Z,1.175
2024-03-12T04:48:09.468Z,1.194
2024-03-12T04:49:09.191Z,0.948
2024-03-12T04:51:09.738Z,1.020
2024-03-12T04:52:09.382Z,0.964
2024-03-12T04:53:08.792Z,1.031
2024-03-12T04:54:10.263Z,1.167
2024-03-12T04:55:09.989Z,1.010
2024-03-12T04:57:09.797Z,0.935
2024-03-12T04:58:09.436Z,0.924
2024-03-12T04:59:08.951Z,1.039
2024-03-12T05:00:09.402Z,0.999
2024-03-12T05:01:09.352Z,0.924
2024-03-12T05:02:09.198Z,0.951
2024-03-12T05:03:09.872Z,1.052
2024-03-12T05:04:23.000Z,1.127
2024-03-12T05:06:09.683Z,1.141
2024-03-12T05:07:09.379Z,1.266
2024-03-12T05:08:08.869Z,1.338
2024-03-12T05:09:09.195Z,1.322
2024-03-12T05:10:10.032Z,1.237
2024-03-12T05:11:09.541Z,1.159
2024-03-12T05:12:09.048Z,1.103
2024-03-12T05:13:10.173Z,1.122
2024-03-12T05:14:09.848Z,1.141
2024-03-12T05:16:09.945Z,1.133
2024-03-12T05:18:09.282Z,1.085
2024-03-12T05:19:09.487Z,1.077
2024-03-12T05:21:08.814Z,0.855
2024-03-12T05:22:09.624Z,0.844
2024-03-12T05:23:09.314Z,0.930
2024-03-12T05:24:09.762Z,1.069
2024-03-12T05:25:09.546Z,1.087
2024-03-12T05:26:09.085Z,0.991
2024-03-12T05:27:13.850Z,1.015
2024-03-12T05:28:09.245Z,1.023
2024-03-12T05:30:09.398Z,1.061
2024-03-12T05:31:09.832Z,0.999
2024-03-12T05:32:09.354Z,1.125
2024-03-12T05:33:10.006Z,1.175
2024-03-12T05:34:09.598Z,1.258
2024-03-12T05:35:09.806Z,1.255
2024-03-12T05:36:09.464Z,1.250
2024-03-12T05:37:12.731Z,1.277
2024-03-12T05:38:11.119Z,1.352
2024-03-12T05:39:09.760Z,1.279
2024-03-12T05:41:09.269Z,1.362
2024-03-12T05:42:09.545Z,1.378
2024-03-12T05:43:09.244Z,1.416
2024-03-12T05:44:09.773Z,1.458
2024-03-12T05:45:09.100Z,1.525
2024-03-12T05:46:09.973Z,1.541
2024-03-12T05:47:08.784Z,1.571
2024-03-12T05:48:09.600Z,1.611
2024-03-12T05:49:09.324Z,1.632
2024-03-12T05:50:08.952Z,1.691
2024-03-12T05:51:09.342Z,1.688
2024-03-12T05:52:09.974Z,1.723
2024-03-12T05:53:09.479Z,1.715
2024-03-12T05:54:08.851Z,1.696
2024-03-12T05:55:09.520Z,1.763
2024-03-12T05:56:09.118Z,1.795
2024-03-12T05:57:09.943Z,1.832
2024-03-12T05:58:09.618Z,1.811
2024-03-12T05:59:09.195Z,1.771
2024-03-12T06:00:09.623Z,1.736
2024-03-12T06:01:09.667Z,1.693
2024-03-12T06:02:09.776Z,1.667
2024-03-12T06:03:09.438Z,1.661
2024-03-12T06:04:09.318Z,1.538
2024-03-12T06:05:08.831Z,1.557
2024-03-12T06:06:09.369Z,1.552
2024-03-12T06:07:09.271Z,1.555
2024-03-12T06:08:09.709Z,1.557
2024-03-12T06:09:08.968Z,1.557
2024-03-12T06:10:10.002Z,1.530
2024-03-12T06:11:10.218Z,1.490
2024-03-12T06:12:09.658Z,1.402
2024-03-12T06:13:09.131Z,1.389
2024-03-12T06:14:09.998Z,1.408
2024-03-12T06:15:09.406Z,1.400
2024-03-12T06:16:10.133Z,1.384
2024-03-12T06:17:08.709Z,1.448
2024-03-12T06:18:09.357Z,1.416
2024-03-12T06:19:10.006Z,1.541
2024-03-12T06:20:14.258Z,1.571
2024-03-12T06:21:09.533Z,1.661
2024-03-12T06:22:09.737Z,1.768
2024-03-12T06:25:11.267Z,2.171
2024-03-12T06:27:10.827Z,2.361
2024-03-12T06:28:09.935Z,2.444
2024-03-12T06:30:08.964Z,2.502
2024-03-12T06:31:09.888Z,2.516
2024-03-12T06:32:08.776Z,2.535
2024-03-12T06:33:09.426Z,2.553
2024-03-12T06:34:09.104Z,2.593
2024-03-12T06:35:08.882Z,2.601
2024-03-12T06:36:09.411Z,2.585
2024-03-12T06:37:09.041Z,2.649
2024-03-12T06:38:09.528Z,2.783
2024-03-12T06:39:08.964Z,2.818
2024-03-12T06:40:09.628Z,2.948
2024-03-12T06:41:09.356Z,3.018
2024-03-12T06:42:13.465Z,3.151
2024-03-12T06:44:08.868Z,3.061
2024-03-12T06:45:10.821Z,3.138
2024-03-12T06:46:09.648Z,3.101
2024-03-12T06:47:09.240Z,3.061
2024-03-12T06:48:10.135Z,2.999
2024-03-12T06:49:09.042Z,2.978
2024-03-12T06:50:12.058Z,3.015
2024-03-12T06:53:09.084Z,3.317
2024-03-12T06:54:09.433Z,3.405
2024-03-12T06:55:11.141Z,3.370
2024-03-12T06:56:09.332Z,3.445
2024-03-12T06:57:09.717Z,3.621
2024-03-12T06:58:09.380Z,3.691
2024-03-12T06:59:08.886Z,3.715
2024-03-12T07:00:09.415Z,3.728
2024-03-12T07:02:09.010Z,3.766
2024-03-12T07:03:09.627Z,3.803
2024-03-12T07:04:09.230Z,3.883
2024-03-12T07:05:09.830Z,4.009
2024-03-12T07:06:09.186Z,4.089
2024-03-12T07:07:10.156Z,3.931
2024-03-12T07:09:11.235Z,3.993
2024-03-12T07:10:10.132Z,3.896
2024-03-12T07:11:08.992Z,3.985
2024-03-12T07:12:09.988Z,3.912
2024-03-12T07:13:09.683Z,3.830
2024-03-12T07:16:09.135Z,4.059
2024-03-12T07:17:09.266Z,4.150
2024-03-12T07:18:10.232Z,4.161
2024-03-12T07:19:10.119Z,4.195
2024-03-12T07:20:09.812Z,4.150
2024-03-12T07:21:09.413Z,4.129
2024-03-12T07:22:10.319Z,4.166
2024-03-12T07:23:08.793Z,4.171
2024-03-12T07:24:09.135Z,4.049
2024-03-12T07:25:09.865Z,4.121
2024-03-12T07:26:09.504Z,4.051
2024-03-12T07:27:08.965Z,4.097
2024-03-12T07:28:11.461Z,4.222
2024-03-12T07:29:09.084Z,4.468
2024-03-12T07:30:09.736Z,4.628
2024-03-12T07:31:09.439Z,4.636
2024-03-12T07:32:08.972Z,4.810
2024-03-12T07:33:10.443Z,4.892
2024-03-12T07:34:09.264Z,4.815
2024-03-12T07:35:09.697Z,4.892
2024-03-12T07:36:09.086Z,4.957
2024-03-12T07:37:09.979Z,5.122
2024-03-12T07:38:10.501Z,5.245
2024-03-12T07:39:08.809Z,5.360
2024-03-12T07:40:09.430Z,5.357
2024-03-12T07:41:08.922Z,5.368
2024-03-12T07:42:10.938Z,5.496
2024-03-12T07:43:10.642Z,5.640
2024-03-12T07:44:09.242Z,5.624
2024-03-12T07:45:09.588Z,5.718
2024-03-12T07:46:09.128Z,5.653
2024-03-12T07:47:09.985Z,5.549
2024-03-12T07:48:09.861Z,5.600
2024-03-12T07:49:12.826Z,5.653
2024-03-12T07:50:09.627Z,5.653
2024-03-12T07:51:12.533Z,5.571
2024-03-12T07:52:08.955Z,5.563
2024-03-12T07:53:09.723Z,5.661
2024-03-12T07:56:08.902Z,5.816
2024-03-12T07:57:09.349Z,5.891
2024-03-12T07:58:10.138Z,6.003
2024-03-12T07:59:08.897Z,6.049
2024-03-12T08:00:09.409Z,6.083
2024-03-12T08:01:10.261Z,6.206
2024-03-12T08:02:09.018Z,6.281
2024-03-12T08:03:09.558Z,6.420
2024-03-12T08:04:09.108Z,6.431
2024-03-12T08:05:09.779Z,6.471
2024-03-12T08:06:09.330Z,6.465
2024-03-12T08:07:10.025Z,6.495
2024-03-12T08:08:09.590Z,6.412
2024-03-12T08:09:08.921Z,6.476
2024-03-12T08:10:09.878Z,6.556
2024-03-12T08:11:09.955Z,6.628
2024-03-12T08:12:09.329Z,6.716
2024-03-12T08:13:09.551Z,6.730
2024-03-12T08:14:09.036Z,6.786
2024-03-12T08:15:09.434Z,6.724
2024-03-12T08:16:10.105Z,6.676
2024-03-12T08:17:08.824Z,6.735
2024-03-12T08:18:24.118Z,6.783
2024-03-12T08:19:09.663Z,6.802
2024-03-12T08:20:08.947Z,6.714
2024-03-12T08:21:09.867Z,6.933
2024-03-12T08:22:09.445Z,6.879
2024-03-12T08:24:08.990Z,6.772
2024-03-12T08:25:09.601Z,6.770
2024-03-12T08:26:10.458Z,6.807
2024-03-12T08:27:09.747Z,6.826
2024-03-12T08:28:09.304Z,6.973
2024-03-12T08:31:32.451Z,6.895
2024-03-12T08:32:09.493Z,6.903
2024-03-12T08:33:09.034Z,6.799
2024-03-12T08:34:09.821Z,6.732
2024-03-12T08:35:09.445Z,6.788
2024-03-12T08:36:08.773Z,6.783
2024-03-12T08:37:09.722Z,6.879
2024-03-12T08:38:09.251Z,6.788
2024-03-12T08:39:09.714Z,6.967
2024-03-12T08:40:09.515Z,6.949
2024-03-12T08:41:09.129Z,6.965
2024-03-12T08:42:09.725Z,6.746
2024-03-12T08:43:14.162Z,6.831
2024-03-12T08:45:09.213Z,6.727
2024-03-12T08:46:09.910Z,6.850
2024-03-12T08:47:09.727Z,6.975
2024-03-12T08:48:09.359Z,6.978
2024-03-12T08:49:10.372Z,6.925
2024-03-12T08:50:09.016Z,7.095
2024-03-12T08:51:09.613Z,7.007
2024-03-12T08:52:09.193Z,7.047
2024-03-12T08:53:10.312Z,7.200
2024-03-12T08:54:09.298Z,7.256
2024-03-12T08:55:09.068Z,7.237
2024-03-12T08:56:10.484Z,7.258
2024-03-12T08:57:08.949Z,7.285
2024-03-12T08:58:10.732Z,7.349
2024-03-12T09:00:09.130Z,7.306
2024-03-12T09:01:10.156Z,7.344
2024-03-12T09:02:09.571Z,7.370
2024-03-12T09:03:09.253Z,7.488
2024-03-12T09:04:12.555Z,7.648
2024-03-12T09:06:09.783Z,7.891
2024-03-12T09:07:09.379Z,7.899
2024-03-12T09:08:08.945Z,8.116
2024-03-12T09:09:09.361Z,8.089
2024-03-12T09:10:10.320Z,8.025
2024-03-12T09:11:09.619Z,7.910
2024-03-12T09:12:09.141Z,8.035
2024-03-12T09:13:09.871Z,7.915
2024-03-12T09:14:09.454Z,7.822
2024-03-12T09:15:08.875Z,7.643
2024-03-12T09:16:10.436Z,7.771
2024-03-12T09:17:09.320Z,7.969
2024-03-12T09:18:09.963Z,8.134
2024-03-12T09:19:09.661Z,8.169
2024-03-12T09:20:09.392Z,8.140
2024-03-12T09:21:09.131Z,8.252
2024-03-12T09:22:10.026Z,8.321
2024-03-12T09:25:10.089Z,8.500
2024-03-12T09:26:09.702Z,8.516
2024-03-12T09:27:09.061Z,8.428
2024-03-12T09:28:09.763Z,8.484
2024-03-12T09:30:08.982Z,8.537
2024-03-12T09:31:09.844Z,8.300
2024-03-12T09:32:09.778Z,8.244
2024-03-12T09:33:09.307Z,8.225
2024-03-12T09:34:09.524Z,8.270
2024-03-12T09:35:08.957Z,8.268
2024-03-12T09:36:09.329Z,8.214
2024-03-12T09:37:12.178Z,8.214
2024-03-12T09:39:09.498Z,8.281
2024-03-12T09:40:09.846Z,8.364
2024-03-12T09:41:09.393Z,8.380
2024-03-12T09:44:12.779Z,8.278
2024-03-12T09:46:10.157Z,8.367
2024-03-12T09:47:09.661Z,8.364
2024-03-12T09:48:09.628Z,8.495
2024-03-12T09:49:09.273Z,8.537
2024-03-12T09:50:12.938Z,8.532
2024-03-12T09:52:09.298Z,8.174
2024-03-12T09:53:08.794Z,7.905
2024-03-12T09:54:09.139Z,7.800
2024-03-12T09:55:10.316Z,7.862
2024-03-12T09:56:12.350Z,7.862
2024-03-12T09:59:09.891Z,7.843
2024-03-12T10:01:09.061Z,7.958
2024-03-12T10:02:12.696Z,7.878
2024-03-12T10:04:10.647Z,7.867
2024-03-12T10:05:09.494Z,7.811
2024-03-12T10:06:08.848Z,7.816
2024-03-12T10:07:09.994Z,7.846
2024-03-12T10:08:13.238Z,7.774
2024-03-12T10:10:10.059Z,7.838
2024-03-12T10:11:09.895Z,7.723
2024-03-12T10:12:08.941Z,7.768
2024-03-12T10:13:09.553Z,7.760
2024-03-12T10:14:12.809Z,7.758
2024-03-12T10:16:11.633Z,7.894
2024-03-12T10:17:09.315Z,7.963
2024-03-12T10:18:08.992Z,8.011
2024-03-12T10:19:09.705Z,8.019
2024-03-12T10:20:12.781Z,7.995
2024-03-12T10:23:08.864Z,8.113
2024-03-12T10:24:10.280Z,8.252
2024-03-12T10:25:10.689Z,8.308
2024-03-12T10:26:13.444Z,8.292
2024-03-12T10:27:10.532Z,8.348
2024-03-12T10:28:14.779Z,8.431
2024-03-12T10:31:09.408Z,8.764
2024-03-12T10:32:12.587Z,8.922
2024-03-12T10:34:09.834Z,9.023
2024-03-12T10:35:09.398Z,9.053
2024-03-12T10:36:09.691Z,9.117
2024-03-12T10:37:09.786Z,9.213
2024-03-12T10:38:10.070Z,9.229
2024-03-12T10:41:09.435Z,9.314
2024-03-12T10:42:08.902Z,9.325
2024-03-12T10:43:09.660Z,9.277
2024-03-12T10:44:12.217Z,9.245
2024-03-12T10:45:08.936Z,9.200
2024-03-12T10:46:09.790Z,9.269
2024-03-12T10:47:09.563Z,9.363
2024-03-12T10:48:09.081Z,9.296
2024-03-12T10:49:09.780Z,9.306
2024-03-12T10:50:09.426Z,9.109
2024-03-12T10:51:08.737Z,9.010
2024-03-12T10:52:09.489Z,9.104
2024-03-12T10:53:09.053Z,9.170
2024-03-12T10:54:09.567Z,9.125
2024-03-12T10:55:14.288Z,9.154
2024-03-12T10:56:15.899Z,9.213
2024-03-12T10:58:10.041Z,9.421
2024-03-12T10:59:09.547Z,9.328
2024-03-12T11:00:09.019Z,9.395
2024-03-12T11:01:09.844Z,9.298
2024-03-12T11:02:13.710Z,9.336
2024-03-12T11:04:10.086Z,9.331
2024-03-12T11:05:09.733Z,9.248
2024-03-12T11:06:09.155Z,9.355
2024-03-12T11:07:09.786Z,9.373
2024-03-12T11:08:12.474Z,9.638
2024-03-12T11:10:09.837Z,9.921
2024-03-12T11:11:09.591Z,9.881
2024-03-12T11:13:10.092Z,10.244
2024-03-12T11:14:13.572Z,10.300
2024-03-12T11:16:09.686Z,10.586
2024-03-12T11:17:09.338Z,10.532
2024-03-12T11:18:10.033Z,10.409
2024-03-12T11:19:09.567Z,10.556
2024-03-12T11:20:12.595Z,10.201
2024-03-12T11:21:08.904Z,10.212
2024-03-12T11:22:09.366Z,10.062
2024-03-12T11:23:09.353Z,10.009
2024-03-12T11:24:09.652Z,10.057
2024-03-12T11:25:09.106Z,10.011
2024-03-12T11:26:09.782Z,10.177
2024-03-12T11:27:09.131Z,10.174
2024-03-12T11:28:10.066Z,10.268
2024-03-12T11:30:09.814Z,10.642
2024-03-12T11:31:09.218Z,10.559
2024-03-12T11:32:14.671Z,10.834
2024-03-12T11:33:12.190Z,10.772
2024-03-12T11:35:12.421Z,10.500
2024-03-12T11:36:11.772Z,10.343
2024-03-12T11:37:12.338Z,10.311
2024-03-12T11:38:17.513Z,10.303
2024-03-12T11:39:11.952Z,10.415
2024-03-12T11:40:12.685Z,10.361
2024-03-12T11:41:12.377Z,10.732
2024-03-12T11:43:09.501Z,10.655
2024-03-12T11:44:11.672Z,10.460
2024-03-12T11:45:09.807Z,10.388
2024-03-12T11:46:09.588Z,10.335
2024-03-12T11:47:09.681Z,10.543
2024-03-12T11:48:09.243Z,10.618
2024-03-12T11:49:10.127Z,10.754
2024-03-12T11:50:10.949Z,10.831
2024-03-12T11:51:09.290Z,10.991
2024-03-12T11:52:10.145Z,10.746
2024-03-12T11:53:09.551Z,10.719
2024-03-12T11:54:08.870Z,10.810
2024-03-12T11:55:09.749Z,10.732
2024-03-12T11:56:15.330Z,10.738
2024-03-12T11:58:09.411Z,10.845
2024-03-12T11:59:22.932Z,10.364
2024-03-12T12:01:10.028Z,10.388
2024-03-12T12:02:12.498Z,10.268
2024-03-12T12:03:08.833Z,10.212
2024-03-12T12:04:09.594Z,10.327
2024-03-12T12:05:09.730Z,10.190
2024-03-12T12:06:09.009Z,10.126
2024-03-12T12:07:09.658Z,10.185
2024-03-12T12:08:09.472Z,10.217
2024-03-12T12:09:10.788Z,10.177
2024-03-12T12:10:09.519Z,10.073
2024-03-12T12:11:09.385Z,10.180
2024-03-12T12:14:14.282Z,10.441
2024-03-12T12:15:09.566Z,10.759
2024-03-12T12:17:09.660Z,10.805
2024-03-12T12:18:09.318Z,10.588
2024-03-12T12:19:14.032Z,10.492
2024-03-12T12:21:08.886Z,10.441
2024-03-12T12:22:09.524Z,10.508
2024-03-12T12:23:09.186Z,10.543
2024-03-12T12:24:10.860Z,10.412
2024-03-12T12:25:09.595Z,10.276
2024-03-12T12:26:09.256Z,10.148
2024-03-12T12:27:09.692Z,10.361
2024-03-12T12:28:09.234Z,10.276
2024-03-12T12:29:09.204Z,10.225
2024-03-12T12:30:12.492Z,10.436
2024-03-12T12:31:08.947Z,10.634
2024-03-12T12:32:09.413Z,10.783
2024-03-12T12:33:09.015Z,10.869
2024-03-12T12:34:10.841Z,10.858
2024-03-12T12:36:09.272Z,11.224
2024-03-12T12:37:10.115Z,10.922
2024-03-12T12:38:09.733Z,10.668
2024-03-12T12:39:09.188Z,10.759
2024-03-12T12:40:09.692Z,10.823
2024-03-12T12:41:10.592Z,10.639
2024-03-12T12:42:09.305Z,10.834
2024-03-12T12:43:09.960Z,10.500
2024-03-12T12:44:09.635Z,10.716
2024-03-12T12:45:09.489Z,10.762
2024-03-12T12:46:09.002Z,10.276
2024-03-12T12:47:09.537Z,10.500
2024-03-12T12:48:09.205Z,10.489
2024-03-12T12:49:10.095Z,10.262
2024-03-12T12:51:09.319Z,10.158
2024-03-12T12:52:10.977Z,10.249
2024-03-12T12:53:10.218Z,10.260
2024-03-12T12:55:09.066Z,10.359
2024-03-12T12:56:09.602Z,10.278
2024-03-12T12:57:09.250Z,10.463
2024-03-12T12:58:10.763Z,10.343
2024-03-12T12:59:09.407Z,10.417
2024-03-12T13:00:09.777Z,10.225
2024-03-12T13:01:09.775Z,10.345
2024-03-12T13:02:10.513Z,10.679
2024-03-12T13:03:09.214Z,10.591
2024-03-12T13:04:09.962Z,10.391
2024-03-12T13:05:09.911Z,10.254
2024-03-12T13:07:09.316Z,10.249
2024-03-12T13:08:09.016Z,10.201
2024-03-12T13:09:09.361Z,10.375
2024-03-12T13:10:10.116Z,10.516
2024-03-12T13:11:10.500Z,10.383
2024-03-12T13:12:10.513Z,10.383
2024-03-12T13:13:09.159Z,10.340
2024-03-12T13:14:09.639Z,10.185
2024-03-12T13:15:09.047Z,10.166
2024-03-12T13:16:09.761Z,10.086
2024-03-12T13:17:10.602Z,10.244
2024-03-12T13:18:09.215Z,10.161
2024-03-12T13:19:09.805Z,10.225
2024-03-12T13:20:09.329Z,9.963
2024-03-12T13:21:09.879Z,9.598
2024-03-12T13:22:22.939Z,9.355
2024-03-12T13:24:09.351Z,9.365
2024-03-12T13:25:09.986Z,9.437
2024-03-12T13:26:09.551Z,9.250
2024-03-12T13:27:08.879Z,9.240
2024-03-12T13:28:09.711Z,9.202
2024-03-12T13:29:09.345Z,9.077
2024-03-12T13:30:12.696Z,9.138
2024-03-12T13:31:09.053Z,9.096
2024-03-12T13:32:09.827Z,9.213
2024-03-12T13:35:09.929Z,9.691
2024-03-12T13:36:09.321Z,9.627
2024-03-12T13:37:10.015Z,9.891
2024-03-12T13:38:09.503Z,9.862
2024-03-12T13:39:08.897Z,10.060
2024-03-12T13:40:09.765Z,10.038
2024-03-12T13:42:09.186Z,10.380
2024-03-12T13:43:09.681Z,10.527
2024-03-12T13:44:09.660Z,10.759
2024-03-12T13:45:09.161Z,10.869
2024-03-12T13:46:09.811Z,10.511
2024-03-12T13:47:09.795Z,10.420
2024-03-12T13:48:09.608Z,10.473
2024-03-12T13:51:09.169Z,10.532
2024-03-12T13:52:10.428Z,10.473
2024-03-12T13:53:09.102Z,10.591
2024-03-12T13:54:09.636Z,10.650
2024-03-12T13:55:09.685Z,10.503
2024-03-12T13:56:09.173Z,10.364
2024-03-12T13:57:09.588Z,10.249
2024-03-12T13:58:09.121Z,10.230
2024-03-12T13:59:09.162Z,10.305
2024-03-12T14:00:09.677Z,10.268
2024-03-12T14:01:09.344Z,10.281
2024-03-12T14:02:10.420Z,10.327
2024-03-12T14:04:09.501Z,10.182
2024-03-12T14:05:11.604Z,10.206
2024-03-12T14:07:09.700Z,10.249
2024-03-12T14:09:08.793Z,10.065
2024-03-12T14:10:09.576Z,9.934
2024-03-12T14:11:09.516Z,10.062
2024-03-12T14:12:08.945Z,10.089
2024-03-12T14:13:09.617Z,10.100
2024-03-12T14:14:09.491Z,10.153
2024-03-12T14:16:09.271Z,9.985
2024-03-12T14:18:09.659Z,10.001
2024-03-12T14:19:09.905Z,10.033
2024-03-12T14:21:09.377Z,9.870
2024-03-12T14:22:10.053Z,9.910
2024-03-12T14:23:09.523Z,9.993
2024-03-12T14:24:08.917Z,10.092